Time;durP1;ratioP1;P1;durP2;ratioP2;P2;SDS_P1;SDS_P2;PMS_P1;PMS_P2;Temp;Humidity;BMP_temperature;BMP_pressure;BME280_temperature;BME280_humidity;BME280_pressure;Samples;Min_cycle;Max_cycle;Signal;HPM_P1;HPM_P2
2022/07/27 00:00:39;;;;;;;3.75;1.30;;;16.50;99.90;;;;;;4975656;28;20023;-66
2022/07/27 00:03:05;;;;;;;3.30;1.08;;;16.50;99.90;;;;;;4976027;28;20034;-66
2022/07/27 00:05:31;;;;;;;7.68;2.10;;;16.50;99.90;;;;;;4975518;28;20560;-67
2022/07/27 00:07:56;;;;;;;1.70;0.93;;;16.40;99.90;;;;;;4975608;28;20090;-71
2022/07/27 00:10:22;;;;;;;5.07;1.98;;;16.40;99.90;;;;;;4975273;28;20358;-69
2022/07/27 00:12:48;;;;;;;5.05;1.23;;;16.40;99.90;;;;;;4975311;28;20372;-67
2022/07/27 00:15:13;;;;;;;5.70;0.98;;;16.30;99.90;;;;;;4975605;28;20038;-67
2022/07/27 00:17:39;;;;;;;2.72;1.15;;;16.30;99.90;;;;;;4975552;28;20097;-69
2022/07/27 00:20:05;;;;;;;3.17;1.20;;;16.30;99.90;;;;;;4975356;28;20038;-67
2022/07/27 00:22:31;;;;;;;8.63;1.65;;;16.30;99.90;;;;;;4975506;28;20035;-70
2022/07/27 00:24:56;;;;;;;4.82;1.80;;;16.30;99.90;;;;;;4975387;28;20121;-67
2022/07/27 00:27:22;;;;;;;7.38;1.25;;;16.30;99.90;;;;;;4974696;28;20023;-66
2022/07/27 00:29:48;;;;;;;6.38;1.70;;;16.30;99.90;;;;;;4974402;28;20509;-67
2022/07/27 00:32:14;;;;;;;5.00;2.05;;;16.30;99.90;;;;;;4975049;28;20022;-67
2022/07/27 00:34:39;;;;;;;5.43;1.90;;;16.20;99.90;;;;;;4975184;28;20437;-67
2022/07/27 00:37:05;;;;;;;5.68;1.83;;;16.20;99.90;;;;;;4975154;28;20022;-67
2022/07/27 00:39:30;;;;;;;5.60;1.95;;;16.20;99.90;;;;;;4975244;28;20088;-68
2022/07/27 00:41:56;;;;;;;3.85;1.58;;;16.10;99.90;;;;;;4974716;28;20062;-67
2022/07/27 00:44:31;;;;;;;5.15;2.00;;;16.10;99.90;;;;;;4974828;28;20035;-66
2022/07/27 00:46:57;;;;;;;7.55;2.25;;;16.00;99.90;;;;;;4974539;28;20050;-68
2022/07/27 00:49:25;;;;;;;6.25;1.80;;;16.00;99.90;;;;;;4975076;28;20146;-67
2022/07/27 00:51:52;;;;;;;5.15;1.80;;;16.00;99.90;;;;;;4974700;28;20018;-68
2022/07/27 00:54:18;;;;;;;8.18;2.30;;;16.00;99.90;;;;;;4974547;28;20055;-70
2022/07/27 00:56:44;;;;;;;2.60;1.40;;;16.00;99.90;;;;;;4974888;28;20062;-67
2022/07/27 00:59:12;;;;;;;9.63;2.33;;;16.10;99.90;;;;;;4972953;28;20422;-70
2022/07/27 01:01:38;;;;;;;7.85;2.40;;;16.10;99.90;;;;;;4974654;28;20106;-67
2022/07/27 01:04:04;;;;;;;4.38;1.60;;;16.10;99.90;;;;;;4974538;28;20130;-66
2022/07/27 01:06:30;;;;;;;3.78;2.00;;;16.10;99.90;;;;;;4974668;28;20043;-67
2022/07/27 01:11:41;;;;;;;6.68;2.25;;;16.20;99.90;;;;;;4974107;28;20045;-67
2022/07/27 01:14:07;;;;;;;7.97;1.70;;;16.20;99.90;;;;;;4974189;28;20457;-67
2022/07/27 01:16:32;;;;;;;4.68;1.60;;;16.20;99.90;;;;;;4974309;28;20018;-67
2022/07/27 01:18:58;;;;;;;9.70;1.55;;;16.20;99.90;;;;;;4974710;28;20086;-70
2022/07/27 01:21:24;;;;;;;4.88;1.40;;;16.30;99.90;;;;;;4972609;28;20030;-67
2022/07/27 01:23:49;;;;;;;5.88;1.35;;;16.30;99.90;;;;;;4973956;28;20050;-66
2022/07/27 01:26:15;;;;;;;2.70;1.13;;;16.30;99.90;;;;;;4974233;28;20023;-71
2022/07/27 01:28:45;;;;;;;5.25;1.60;;;16.30;99.90;;;;;;4973860;28;20062;-70
2022/07/27 01:31:10;;;;;;;4.13;1.98;;;16.30;99.90;;;;;;4974111;28;20020;-69
2022/07/27 01:33:36;;;;;;;5.70;1.55;;;16.30;99.90;;;;;;4974020;28;20054;-68
2022/07/27 01:36:02;;;;;;;9.93;3.80;;;16.30;99.90;;;;;;4973804;28;20073;-67
2022/07/27 01:38:27;;;;;;;11.85;3.38;;;16.40;99.90;;;;;;4973718;28;20373;-67
2022/07/27 01:40:53;;;;;;;5.82;2.03;;;16.40;99.90;;;;;;4973989;28;20031;-68
2022/07/27 01:43:20;;;;;;;3.78;1.60;;;16.40;99.90;;;;;;4973848;28;20030;-67
2022/07/27 01:45:46;;;;;;;4.57;1.23;;;16.40;99.90;;;;;;4972355;28;20429;-67
2022/07/27 01:48:12;;;;;;;5.80;2.15;;;16.40;99.90;;;;;;4973784;28;20046;-67
2022/07/27 01:50:38;;;;;;;5.00;1.50;;;16.50;99.90;;;;;;4973710;28;20026;-67
2022/07/27 01:53:04;;;;;;;4.78;1.80;;;16.50;99.90;;;;;;4973695;28;20023;-67
2022/07/27 01:55:30;;;;;;;3.47;1.23;;;16.50;99.90;;;;;;4973767;28;20809;-67
2022/07/27 01:57:55;;;;;;;1.98;0.82;;;16.50;99.90;;;;;;4973911;28;20413;-71
2022/07/27 02:00:21;;;;;;;3.03;0.75;;;16.50;99.90;;;;;;4973636;28;20029;-71
2022/07/27 02:02:46;;;;;;;4.68;0.90;;;16.50;99.90;;;;;;4973909;28;20101;-68
2022/07/27 02:05:12;;;;;;;1.83;0.68;;;16.50;99.90;;;;;;4973595;28;20033;-68
2022/07/27 02:07:39;;;;;;;1.35;0.98;;;16.50;99.90;;;;;;4973573;28;20027;-66
2022/07/27 02:10:05;;;;;;;3.65;1.20;;;16.50;99.90;;;;;;4973985;28;20051;-67
2022/07/27 02:12:37;;;;;;;2.97;1.00;;;16.40;99.90;;;;;;4972295;28;20117;-67
2022/07/27 02:15:08;;;;;;;2.20;1.17;;;16.40;99.90;;;;;;4973570;28;20071;-67
2022/07/27 02:17:34;;;;;;;2.92;1.30;;;16.40;99.90;;;;;;4973552;28;20034;-71
2022/07/27 02:19:59;;;;;;;3.05;1.10;;;16.30;99.90;;;;;;4973380;28;20175;-67
2022/07/27 02:22:25;;;;;;;3.50;1.35;;;16.30;99.90;;;;;;4972083;28;20038;-70
2022/07/27 02:24:51;;;;;;;3.92;1.20;;;16.30;99.90;;;;;;4973464;28;20047;-67
2022/07/27 02:27:16;;;;;;;4.55;1.10;;;16.20;99.90;;;;;;4973415;28;20473;-69
2022/07/27 02:29:42;;;;;;;5.88;1.23;;;16.20;99.90;;;;;;4973469;28;20429;-68
2022/07/27 02:32:08;;;;;;;2.35;0.80;;;16.20;99.90;;;;;;4973371;28;20074;-67
2022/07/27 02:34:34;;;;;;;3.53;1.20;;;16.20;99.90;;;;;;4971740;28;20469;-67
2022/07/27 02:36:59;;;;;;;6.80;1.50;;;16.20;99.90;;;;;;4971893;28;20034;-67
2022/07/27 02:39:25;;;;;;;5.15;1.00;;;16.20;99.90;;;;;;4973145;28;20342;-71
2022/07/27 02:41:52;;;;;;;7.25;1.35;;;16.20;99.90;;;;;;4973188;28;20035;-69
2022/07/27 02:44:19;;;;;;;3.05;1.10;;;16.30;99.90;;;;;;4973157;28;20035;-71
2022/07/27 02:46:44;;;;;;;1.80;1.20;;;16.30;99.90;;;;;;4972789;28;20039;-66
2022/07/27 02:49:10;;;;;;;6.93;1.02;;;16.30;99.90;;;;;;4972850;28;20027;-67
2022/07/27 02:51:35;;;;;;;6.55;0.93;;;16.30;99.90;;;;;;4973256;28;20030;-66
2022/07/27 02:54:01;;;;;;;5.43;1.13;;;16.30;99.90;;;;;;4974956;28;20039;-66
2022/07/27 02:56:27;;;;;;;3.97;0.90;;;16.30;99.90;;;;;;4976893;28;20038;-69
2022/07/27 02:58:54;;;;;;;7.40;0.95;;;16.20;99.90;;;;;;4976633;28;20098;-67
2022/07/27 03:01:19;;;;;;;4.13;0.98;;;16.20;99.90;;;;;;4976792;28;20027;-67
2022/07/27 03:03:46;;;;;;;3.05;0.98;;;16.20;99.90;;;;;;4976472;28;20026;-67
2022/07/27 03:06:11;;;;;;;4.20;1.08;;;16.10;99.90;;;;;;4977556;28;20133;-66
2022/07/27 03:08:37;;;;;;;8.82;1.50;;;16.10;99.90;;;;;;4981970;28;20066;-66
2022/07/27 03:11:03;;;;;;;4.97;1.05;;;16.10;99.90;;;;;;4981635;28;20019;-68
2022/07/27 03:13:28;;;;;;;6.95;1.17;;;16.10;99.90;;;;;;4976880;28;20453;-67
2022/07/27 03:15:55;;;;;;;4.45;1.10;;;16.00;99.90;;;;;;4976602;28;20508;-67
2022/07/27 03:18:20;;;;;;;7.72;1.20;;;16.00;99.90;;;;;;4976411;28;20019;-68
2022/07/27 03:20:46;;;;;;;10.18;1.70;;;16.00;99.90;;;;;;4976475;28;20365;-67
2022/07/27 03:23:12;;;;;;;7.35;0.90;;;16.00;99.90;;;;;;4976786;28;20100;-68
2022/07/27 03:25:37;;;;;;;2.92;1.27;;;16.00;99.90;;;;;;4976247;28;20090;-67
2022/07/27 03:28:03;;;;;;;3.55;1.30;;;15.90;99.90;;;;;;4976522;28;20023;-68
2022/07/27 03:30:29;;;;;;;9.35;1.80;;;15.90;99.90;;;;;;4976542;28;20023;-72
2022/07/27 03:32:54;;;;;;;7.60;1.42;;;16.00;99.90;;;;;;4976491;28;20031;-70
2022/07/27 03:35:20;;;;;;;2.10;1.20;;;16.00;99.90;;;;;;4976397;28;20069;-68
2022/07/27 03:37:46;;;;;;;8.10;2.17;;;16.00;99.90;;;;;;4976187;28;20078;-67
2022/07/27 03:40:11;;;;;;;4.47;1.55;;;16.00;99.90;;;;;;4974774;28;20044;-68
2022/07/27 03:42:37;;;;;;;6.55;1.35;;;16.00;99.90;;;;;;4976261;28;20031;-68
2022/07/27 03:45:04;;;;;;;4.13;1.38;;;16.00;99.90;;;;;;4975975;28;20065;-67
2022/07/27 03:47:29;;;;;;;7.05;1.40;;;16.00;99.90;;;;;;4975663;28;20428;-71
2022/07/27 03:49:55;;;;;;;3.95;1.52;;;16.00;99.90;;;;;;4976010;28;20046;-72
2022/07/27 03:52:20;;;;;;;6.72;1.52;;;16.00;99.90;;;;;;4975873;28;20019;-68
2022/07/27 03:54:46;;;;;;;7.63;2.00;;;16.00;99.90;;;;;;4975798;28;20022;-68
2022/07/27 03:57:12;;;;;;;4.50;1.77;;;16.00;99.90;;;;;;4975826;28;20031;-70
2022/07/27 03:59:38;;;;;;;4.03;1.50;;;16.10;99.90;;;;;;4975418;28;20073;-66
2022/07/27 04:02:04;;;;;;;4.57;1.23;;;16.10;99.90;;;;;;4975550;28;20026;-67
2022/07/27 04:04:29;;;;;;;8.35;1.50;;;16.20;99.90;;;;;;4974558;28;20038;-65
2022/07/27 04:06:55;;;;;;;7.03;1.83;;;16.20;99.90;;;;;;4975097;28;20033;-65
2022/07/27 04:09:21;;;;;;;8.82;2.55;;;16.30;99.90;;;;;;4975570;28;20027;-66
2022/07/27 04:11:46;;;;;;;4.93;1.95;;;16.30;99.90;;;;;;4975535;28;20071;-68
2022/07/27 04:14:12;;;;;;;7.70;2.25;;;16.30;99.90;;;;;;4975447;28;20109;-70
2022/07/27 04:16:38;;;;;;;8.60;1.98;;;16.40;99.90;;;;;;4975216;28;20791;-68
2022/07/27 04:19:04;;;;;;;4.22;1.63;;;16.40;99.90;;;;;;4975444;28;20157;-67
2022/07/27 04:21:29;;;;;;;4.50;1.30;;;16.40;99.90;;;;;;4975378;28;20078;-67
2022/07/27 04:23:55;;;;;;;9.77;1.98;;;16.40;99.90;;;;;;4975157;28;20027;-67
2022/07/27 04:26:20;;;;;;;6.13;1.80;;;16.40;99.90;;;;;;4975449;28;20022;-69
2022/07/27 04:28:46;;;;;;;6.97;1.85;;;16.50;99.90;;;;;;4975326;28;20014;-68
2022/07/27 04:31:12;;;;;;;6.88;1.80;;;16.50;99.90;;;;;;4974939;28;20077;-68
2022/07/27 04:33:37;;;;;;;4.38;1.85;;;16.50;99.90;;;;;;4973725;28;20035;-70
2022/07/27 04:36:04;;;;;;;4.88;1.70;;;16.60;99.90;;;;;;4974688;28;20027;-66
2022/07/27 04:38:29;;;;;;;7.20;1.73;;;16.60;99.90;;;;;;4974825;28;20041;-67
2022/07/27 04:40:55;;;;;;;6.15;1.65;;;16.70;99.90;;;;;;4974965;28;20465;-68
2022/07/27 04:43:20;;;;;;;8.32;2.53;;;16.70;99.90;;;;;;4973383;28;20022;-67
2022/07/27 04:45:46;;;;;;;3.97;1.58;;;16.70;99.90;;;;;;4974626;28;20114;-66
2022/07/27 04:48:11;;;;;;;8.38;1.63;;;16.70;99.90;;;;;;4973239;28;20043;-66
2022/07/27 04:50:39;;;;;;;6.53;1.40;;;16.80;99.90;;;;;;4974464;28;20031;-70
2022/07/27 04:53:05;;;;;;;7.35;1.70;;;16.80;99.90;;;;;;4974488;28;20081;-66
2022/07/27 04:55:30;;;;;;;7.00;1.65;;;16.90;99.90;;;;;;4974894;28;20026;-67
2022/07/27 04:57:56;;;;;;;7.07;1.42;;;16.90;99.90;;;;;;4974873;28;20030;-66
2022/07/27 05:00:22;;;;;;;4.55;1.63;;;16.90;99.90;;;;;;4972948;28;20027;-67
2022/07/27 05:02:47;;;;;;;5.45;1.75;;;17.00;99.90;;;;;;4974669;28;20026;-67
2022/07/27 05:05:13;;;;;;;8.35;1.80;;;17.00;99.90;;;;;;4974748;28;20491;-72
2022/07/27 05:07:38;;;;;;;6.85;1.23;;;17.10;99.90;;;;;;4973546;28;20026;-67
2022/07/27 05:10:04;;;;;;;6.38;1.35;;;17.20;99.90;;;;;;4974770;28;20038;-67
2022/07/27 05:12:30;;;;;;;6.93;1.80;;;17.20;99.90;;;;;;4974602;28;20034;-67
2022/07/27 05:14:55;;;;;;;6.38;1.90;;;17.20;99.90;;;;;;4973084;28;20077;-69
2022/07/27 05:17:21;;;;;;;4.90;1.02;;;17.30;99.90;;;;;;4973921;28;20054;-67
2022/07/27 05:19:46;;;;;;;8.13;2.22;;;17.40;99.90;;;;;;4973263;28;20022;-67
2022/07/27 05:22:12;;;;;;;5.63;1.05;;;17.50;99.90;;;;;;4974675;28;20023;-70
2022/07/27 05:24:37;;;;;;;7.50;2.53;;;17.60;99.90;;;;;;4974558;28;20055;-67
2022/07/27 05:27:03;;;;;;;5.10;1.02;;;17.60;99.90;;;;;;4974136;28;20038;-67
2022/07/27 05:29:29;;;;;;;3.70;1.92;;;17.70;99.80;;;;;;4974351;28;20456;-67
2022/07/27 05:31:54;;;;;;;3.15;1.20;;;17.70;99.80;;;;;;4973062;28;20066;-66
2022/07/27 05:34:20;;;;;;;7.55;1.73;;;17.70;99.80;;;;;;4973960;28;20353;-68
2022/07/27 05:36:45;;;;;;;6.70;1.30;;;17.70;99.70;;;;;;4974260;28;20346;-70
2022/07/27 05:39:11;;;;;;;2.95;1.08;;;17.70;99.30;;;;;;4974046;28;20029;-68
2022/07/27 05:41:37;;;;;;;4.50;1.40;;;17.70;99.30;;;;;;4974483;28;20052;-67
2022/07/27 05:44:02;;;;;;;5.03;1.13;;;17.80;99.10;;;;;;4973975;28;20341;-67
2022/07/27 05:46:28;;;;;;;2.17;0.82;;;17.90;98.60;;;;;;4974026;28;20047;-68
2022/07/27 05:48:54;;;;;;;7.13;1.38;;;17.90;98.50;;;;;;4974291;28;20475;-66
2022/07/27 05:51:19;;;;;;;7.63;1.20;;;18.00;98.40;;;;;;4973018;28;20105;-68
2022/07/27 05:53:45;;;;;;;7.10;1.02;;;18.10;98.10;;;;;;4974226;28;20334;-66
2022/07/27 05:56:10;;;;;;;6.60;1.08;;;18.10;97.80;;;;;;4972598;28;20072;-69
2022/07/27 05:58:36;;;;;;;3.53;1.17;;;18.20;98.00;;;;;;4973986;28;20065;-69
2022/07/27 06:01:02;;;;;;;5.07;1.20;;;18.30;97.40;;;;;;4973651;28;20468;-67
2022/07/27 06:03:27;;;;;;;5.88;0.80;;;18.40;97.40;;;;;;4973832;28;20449;-67
2022/07/27 06:07:57;;;;;;;4.13;1.75;;;18.70;96.70;;;;;;4973817;28;20034;-69
2022/07/27 06:08:38;;;;;;;6.28;1.20;;;19.10;96.30;;;;;;4973886;28;20067;-68
2022/07/27 06:11:04;;;;;;;6.15;1.90;;;19.60;95.40;;;;;;4973346;28;20046;-70
2022/07/27 06:13:34;;;;;;;3.67;0.90;;;20.20;94.50;;;;;;4974005;28;20030;-68
2022/07/27 06:16:00;;;;;;;5.63;1.42;;;20.90;93.30;;;;;;4974044;28;20023;-68
2022/07/27 06:18:25;;;;;;;4.53;0.80;;;21.70;92.50;;;;;;4973912;28;20077;-69
2022/07/27 06:20:51;;;;;;;4.70;0.88;;;22.50;90.70;;;;;;4973942;28;20365;-68
2022/07/27 06:23:16;;;;;;;2.53;0.57;;;23.20;89.60;;;;;;4975765;28;20361;-69
2022/07/27 06:25:42;;;;;;;4.70;0.80;;;23.60;86.80;;;;;;4976930;28;20034;-68
2022/07/27 06:28:08;;;;;;;3.53;1.02;;;23.80;85.90;;;;;;4975852;28;20102;-70
2022/07/27 06:30:34;;;;;;;6.35;1.42;;;24.10;85.20;;;;;;4977773;28;20026;-67
2022/07/27 06:33:03;;;;;;;5.45;1.50;;;24.70;84.10;;;;;;4977396;28;20401;-67
2022/07/27 06:35:28;;;;;;;2.60;0.82;;;25.00;82.00;;;;;;4977244;28;20019;-67
2022/07/27 06:37:54;;;;;;;3.13;0.50;;;25.40;80.70;;;;;;4977587;28;20449;-67
2022/07/27 06:40:20;;;;;;;1.73;0.52;;;25.30;79.30;;;;;;4975944;28;20428;-67
2022/07/27 06:42:45;;;;;;;2.38;0.60;;;25.30;79.40;;;;;;4977465;28;20069;-67
2022/07/27 06:45:11;;;;;;;3.95;0.90;;;25.20;79.50;;;;;;4977531;28;20102;-70
2022/07/27 06:47:38;;;;;;;4.28;0.90;;;25.30;79.70;;;;;;4977334;28;20179;-68
2022/07/27 06:50:04;;;;;;;8.63;1.02;;;25.40;79.40;;;;;;4977544;28;20022;-68
2022/07/27 06:52:30;;;;;;;2.40;0.88;;;25.60;78.70;;;;;;4976681;28;20449;-67
2022/07/27 06:54:56;;;;;;;4.10;0.88;;;26.20;77.80;;;;;;4977291;28;20031;-67
2022/07/27 06:57:21;;;;;;;4.68;1.00;;;26.50;76.90;;;;;;4977224;28;20114;-67
2022/07/27 06:59:49;;;;;;;1.60;0.70;;;26.80;76.50;;;;;;4975525;28;20077;-70
2022/07/27 07:02:16;;;;;;;1.60;0.47;;;27.20;75.20;;;;;;4976739;28;20049;-67
2022/07/27 07:04:42;;;;;;;5.65;1.27;;;27.30;74.90;;;;;;4975689;28;20457;-67
2022/07/27 07:07:08;;;;;;;3.40;0.80;;;27.40;74.20;;;;;;4975516;28;20027;-67
2022/07/27 07:09:34;;;;;;;2.58;1.10;;;27.80;73.30;;;;;;4976181;28;20054;-68
2022/07/27 07:11:59;;;;;;;3.50;1.30;;;28.30;72.50;;;;;;4976206;28;20023;-67
2022/07/27 07:14:25;;;;;;;5.95;0.93;;;28.60;71.80;;;;;;4976482;28;20037;-67
2022/07/27 07:16:52;;;;;;;6.93;1.00;;;28.80;70.70;;;;;;4973356;28;20023;-69
2022/07/27 07:19:18;;;;;;;3.85;0.90;;;29.10;70.20;;;;;;4976251;28;20038;-70
2022/07/27 07:21:43;;;;;;;2.65;0.90;;;29.20;69.20;;;;;;4976035;28;20049;-70
2022/07/27 07:24:09;;;;;;;4.97;1.15;;;29.20;68.90;;;;;;4976277;28;20042;-66
2022/07/27 07:26:36;;;;;;;3.05;0.88;;;29.50;68.60;;;;;;4976256;28;20048;-66
2022/07/27 07:29:02;;;;;;;4.10;0.90;;;29.80;67.00;;;;;;4975473;28;20098;-67
2022/07/27 07:31:27;;;;;;;3.95;0.95;;;29.80;67.10;;;;;;4976074;28;20122;-66
2022/07/27 07:33:54;;;;;;;5.88;1.00;;;29.70;67.50;;;;;;4976391;28;20019;-68
2022/07/27 07:36:20;;;;;;;2.05;1.00;;;29.70;66.70;;;;;;4976758;28;20023;-66
2022/07/27 07:38:46;;;;;;;2.50;0.90;;;29.40;66.40;;;;;;4976184;28;20027;-71
2022/07/27 07:41:12;;;;;;;2.97;0.88;;;29.10;67.00;;;;;;4974990;28;20503;-67
2022/07/27 07:43:38;;;;;;;3.35;0.85;;;28.60;67.40;;;;;;4974832;28;20030;-67
2022/07/27 07:46:04;;;;;;;3.55;0.95;;;28.30;67.80;;;;;;4974912;28;20030;-68
2022/07/27 07:48:30;;;;;;;5.90;1.00;;;27.90;68.40;;;;;;4975021;28;20018;-67
2022/07/27 07:50:55;;;;;;;2.80;0.65;;;27.70;68.20;;;;;;4974988;28;20023;-70
2022/07/27 07:53:22;;;;;;;3.17;1.02;;;27.60;69.90;;;;;;4975039;28;20022;-68
2022/07/27 07:55:48;;;;;;;4.30;0.98;;;27.20;70.00;;;;;;4975422;28;20023;-66
2022/07/27 07:58:13;;;;;;;3.92;1.27;;;26.50;72.00;;;;;;4975179;28;20030;-67
2022/07/27 08:00:40;;;;;;;5.32;1.30;;;25.90;73.60;;;;;;4975712;28;20045;-67
2022/07/27 08:03:06;;;;;;;4.30;1.05;;;25.30;75.00;;;;;;4975909;28;20449;-67
2022/07/27 08:05:32;;;;;;;4.75;1.08;;;24.70;76.30;;;;;;4975941;28;20034;-67
2022/07/27 08:07:57;;;;;;;4.07;1.10;;;24.20;76.70;;;;;;4975778;28;20116;-68
2022/07/27 08:10:23;;;;;;;6.70;1.20;;;23.80;77.70;;;;;;4975721;28;20473;-68
2022/07/27 08:12:53;;;;;;;5.82;1.13;;;23.90;78.60;;;;;;4973716;28;20034;-68
2022/07/27 08:15:20;;;;;;;3.47;1.20;;;24.50;76.80;;;;;;4975281;28;20030;-67
2022/07/27 08:17:46;;;;;;;2.35;0.60;;;25.30;76.80;;;;;;4975451;28;20019;-67
2022/07/27 08:20:13;;;;;;;6.80;1.20;;;25.90;75.50;;;;;;4975620;28;20026;-69
2022/07/27 08:22:39;;;;;;;6.75;1.10;;;26.00;75.00;;;;;;4975530;28;20023;-66
2022/07/27 08:25:05;;;;;;;1.80;0.70;;;25.90;75.00;;;;;;4975512;28;20033;-66
2022/07/27 08:27:30;;;;;;;4.60;0.93;;;25.60;75.20;;;;;;4975285;28;20364;-68
2022/07/27 08:29:56;;;;;;;1.13;0.70;;;25.40;75.50;;;;;;4975692;28;20027;-67
2022/07/27 08:32:22;;;;;;;4.82;1.02;;;25.10;75.90;;;;;;4975177;28;20023;-70
2022/07/27 08:34:47;;;;;;;2.78;0.75;;;24.70;76.30;;;;;;4975340;28;20034;-67
2022/07/27 08:37:13;;;;;;;2.90;0.60;;;24.30;78.60;;;;;;4975387;28;20416;-66
2022/07/27 08:39:38;;;;;;;1.23;0.60;;;24.00;80.90;;;;;;4975578;28;20037;-67
2022/07/27 08:42:08;;;;;;;4.30;1.42;;;23.80;82.30;;;;;;4975288;28;20412;-66
2022/07/27 08:44:34;;;;;;;3.70;0.60;;;23.50;83.50;;;;;;4975089;28;20027;-67
2022/07/27 08:47:01;;;;;;;4.38;1.10;;;23.50;84.60;;;;;;4975079;28;20038;-66
2022/07/27 08:49:28;;;;;;;4.10;1.48;;;23.20;86.30;;;;;;4974572;28;20026;-67
2022/07/27 08:51:54;;;;;;;2.65;1.00;;;22.80;89.00;;;;;;4973610;28;20034;-71
2022/07/27 08:54:20;;;;;;;4.55;1.95;;;22.50;90.20;;;;;;4974886;28;20042;-67
2022/07/27 08:56:46;;;;;;;4.97;1.20;;;22.20;90.80;;;;;;4975349;28;20019;-69
2022/07/27 08:59:12;;;;;;;4.45;1.30;;;22.00;91.20;;;;;;4975136;28;20022;-69
2022/07/27 09:01:38;;;;;;;1.75;0.80;;;21.90;91.40;;;;;;4975200;28;20516;-67
2022/07/27 09:04:06;;;;;;;5.65;1.00;;;21.80;91.40;;;;;;4974904;28;20018;-67
2022/07/27 09:06:47;;;;;;;3.80;0.80;;;21.80;91.60;;;;;;4974505;28;20027;-65
2022/07/27 09:09:19;;;;;;;4.80;1.40;;;22.00;91.60;;;;;;4975048;28;20116;-67
2022/07/27 09:12:03;;;;;;;;;;;22.20;91.50;;;;;;4975136;28;20261;-68
2022/07/27 09:14:34;;;;;;;3.67;1.38;;;22.40;91.10;;;;;;4974696;28;19909;-68
2022/07/27 09:17:22;;;;;;;6.38;1.30;;;22.80;90.70;;;;;;4973867;28;20034;-70
2022/07/27 09:19:55;;;;;;;4.05;1.00;;;23.30;90.10;;;;;;4974790;28;20200;-67
2022/07/27 09:22:41;;;;;;;3.35;1.30;;;24.10;88.30;;;;;;4974566;28;20018;-68
2022/07/27 09:25:08;;;;;;;2.63;1.08;;;25.70;84.50;;;;;;4974271;28;20044;-69
2022/07/27 09:27:35;;;;;;;4.60;1.23;;;27.20;79.60;;;;;;4973206;28;20476;-67
2022/07/27 09:30:08;;;;;;;2.60;0.95;;;28.30;76.20;;;;;;4974503;28;20080;-67
2022/07/27 09:32:34;;;;;;;3.53;0.70;;;29.10;74.30;;;;;;4974598;28;20023;-67
2022/07/27 09:35:16;;;;;;;7.07;1.50;;;29.70;71.10;;;;;;4974838;28;20058;-68
2022/07/27 09:37:42;;;;;;;;;;;30.20;70.90;;;;;;4974786;28;20037;-66
2022/07/27 09:40:25;;;;;;;3.08;1.05;;;30.50;65.30;;;;;;4974244;28;19906;-71
2022/07/27 09:43:12;;;;;;;1.67;0.80;;;30.90;64.70;;;;;;4974508;28;20050;-69
2022/07/27 09:45:42;;;;;;;2.05;0.70;;;31.20;60.80;;;;;;4974060;28;20035;-67
2022/07/27 09:48:07;;;;;;;1.65;0.70;;;31.20;60.40;;;;;;4973988;28;20134;-71
2022/07/27 09:50:33;;;;;;;2.53;0.60;;;31.40;59.70;;;;;;4974950;28;20054;-68
2022/07/27 09:53:19;;;;;;;2.13;0.73;;;31.70;59.10;;;;;;4974250;28;20162;-68
2022/07/27 09:55:55;;;;;;;1.48;0.60;;;31.30;59.30;;;;;;4974349;28;20015;-68
2022/07/27 09:58:37;;;;;;;2.20;0.70;;;30.50;59.70;;;;;;4973866;28;20069;-67
2022/07/27 10:01:02;;;;;;;2.45;0.82;;;29.40;60.40;;;;;;4974137;28;20019;-68
2022/07/27 10:03:28;;;;;;;1.70;0.65;;;28.40;61.50;;;;;;4973868;28;20041;-68
2022/07/27 10:05:54;;;;;;;1.77;1.00;;;27.60;62.50;;;;;;4973980;28;20038;-67
2022/07/27 10:08:21;;;;;;;2.33;0.95;;;26.90;63.40;;;;;;4973674;28;20025;-67
2022/07/27 10:10:47;;;;;;;2.33;1.05;;;26.20;65.10;;;;;;4973497;28;20118;-67
2022/07/27 10:13:12;;;;;;;3.78;1.33;;;25.70;68.10;;;;;;4973844;28;20033;-67
2022/07/27 10:15:42;;;;;;;2.53;1.00;;;25.40;70.70;;;;;;4971788;28;20023;-69
2022/07/27 10:18:15;;;;;;;5.35;0.95;;;25.10;71.20;;;;;;4973889;28;20023;-69
2022/07/27 10:20:44;;;;;;;4.32;1.00;;;25.00;71.50;;;;;;4974178;28;20023;-66
2022/07/27 10:23:25;;;;;;;2.85;0.82;;;25.30;71.60;;;;;;4973740;28;20031;-66
2022/07/27 10:26:14;;;;;;;4.57;1.20;;;26.90;69.50;;;;;;4972397;28;20130;-71
2022/07/27 10:28:50;;;;;;;3.90;1.10;;;27.70;68.30;;;;;;4975429;28;20133;-69
2022/07/27 10:31:18;;;;;;;4.20;0.85;;;27.90;67.40;;;;;;4985666;28;20120;-68
2022/07/27 10:33:46;;;;;;;8.18;1.40;;;27.70;69.10;;;;;;4987480;28;20128;-67
2022/07/27 10:36:44;;;;;;;3.13;1.30;;;27.50;69.10;;;;;;4985637;28;20101;-67
2022/07/27 10:39:10;;;;;;;9.38;2.13;;;26.90;69.80;;;;;;4980047;28;20353;-67
2022/07/27 10:41:39;;;;;;;3.70;1.83;;;26.50;71.10;;;;;;4989690;28;20025;-70
2022/07/27 10:44:13;;;;;;;5.03;1.20;;;25.90;71.60;;;;;;4987355;28;20022;-66
2022/07/27 10:47:05;;;;;;;5.47;1.10;;;25.50;72.50;;;;;;4985360;28;20042;-69
2022/07/27 10:49:33;;;;;;;5.82;1.00;;;25.30;73.50;;;;;;4980333;28;20039;-66
2022/07/27 10:52:00;;;;;;;5.60;1.83;;;25.30;74.00;;;;;;4991317;28;20026;-69
2022/07/27 10:54:38;;;;;;;4.10;1.30;;;25.20;74.40;;;;;;4984119;28;20038;-66
2022/07/27 10:57:06;;;;;;;5.78;1.38;;;25.00;75.60;;;;;;4987639;28;20021;-67
2022/07/27 10:59:44;;;;;;;2.95;1.48;;;24.80;76.10;;;;;;4991823;28;20033;-67
2022/07/27 11:02:13;;;;;;;4.40;1.08;;;24.60;76.60;;;;;;4991097;28;20018;-67
2022/07/27 11:04:50;;;;;;;2.83;0.80;;;24.20;76.40;;;;;;4993008;28;20034;-70
2022/07/27 11:07:18;;;;;;;4.68;1.10;;;23.80;77.80;;;;;;4991853;28;20102;-69
2022/07/27 11:09:44;;;;;;;5.85;1.30;;;23.60;77.60;;;;;;4991519;28;20026;-68
2022/07/27 11:12:11;;;;;;;4.55;1.10;;;23.30;78.30;;;;;;4992633;28;20399;-70
2022/07/27 11:14:45;;;;;;;7.32;1.40;;;23.10;79.30;;;;;;4994029;28;20026;-68
2022/07/27 11:17:11;;;;;;;3.35;1.33;;;23.10;80.30;;;;;;4996389;28;20022;-67
2022/07/27 11:19:37;;;;;;;6.05;1.08;;;23.00;80.70;;;;;;4994958;28;20034;-68
2022/07/27 11:22:03;;;;;;;4.63;1.35;;;23.00;81.10;;;;;;4995058;28;20046;-69
2022/07/27 11:24:28;;;;;;;5.57;1.45;;;22.90;81.60;;;;;;4976711;28;20069;-67
2022/07/27 11:26:54;;;;;;;6.10;1.40;;;22.80;81.80;;;;;;4976986;28;20031;-68
2022/07/27 11:29:22;;;;;;;3.97;1.10;;;22.70;82.20;;;;;;4976373;28;20023;-70
2022/07/27 11:31:51;;;;;;;4.18;1.20;;;22.60;81.90;;;;;;4976451;28;20026;-68
2022/07/27 11:34:18;;;;;;;7.80;1.85;;;22.30;82.30;;;;;;4976680;28;20054;-66
2022/07/27 11:36:50;;;;;;;3.95;1.13;;;22.00;83.10;;;;;;4976549;28;20019;-66
2022/07/27 11:39:20;;;;;;;7.85;1.42;;;21.80;84.00;;;;;;4976600;28;20040;-69
2022/07/27 11:41:46;;;;;;;4.72;1.08;;;21.60;84.40;;;;;;4976559;28;20023;-67
2022/07/27 11:44:13;;;;;;;4.38;1.05;;;21.40;85.20;;;;;;4976164;28;20030;-67
2022/07/27 11:46:43;;;;;;;7.10;1.38;;;21.30;86.10;;;;;;4971602;28;20047;-67
2022/07/27 11:49:29;;;;;;;4.65;1.30;;;21.20;86.40;;;;;;4975936;28;20026;-68
2022/07/27 11:52:00;;;;;;;5.80;1.00;;;21.20;86.90;;;;;;4976151;28;20023;-67
2022/07/27 11:54:32;;;;;;;9.63;1.27;;;21.20;86.70;;;;;;4975864;28;20516;-68
2022/07/27 11:57:04;;;;;;;6.63;1.25;;;21.30;87.30;;;;;;4976032;28;20034;-67
2022/07/27 11:59:34;;;;;;;4.65;1.50;;;21.30;88.10;;;;;;4976084;28;20019;-67
2022/07/27 12:02:02;;;;;;;6.03;1.23;;;21.30;89.60;;;;;;4976223;28;20027;-70
2022/07/27 12:04:29;;;;;;;4.88;1.52;;;21.20;88.10;;;;;;4976021;28;20043;-68
2022/07/27 12:07:20;;;;;;;4.35;1.25;;;21.20;88.30;;;;;;4975987;28;20019;-67
2022/07/27 12:09:57;;;;;;;9.00;2.33;;;21.40;88.20;;;;;;4976068;28;20058;-68
2022/07/27 12:12:27;;;;;;;4.85;1.45;;;21.70;87.30;;;;;;4975592;28;20445;-69
2022/07/27 12:15:13;;;;;;;10.10;1.55;;;22.00;86.90;;;;;;4976170;28;20058;-67
2022/07/27 12:17:39;;;;;;;3.53;0.90;;;22.30;86.10;;;;;;4975684;28;20037;-67
2022/07/27 12:20:06;;;;;;;7.32;1.25;;;22.70;85.40;;;;;;4975907;28;20138;-67
2022/07/27 12:22:47;;;;;;;4.70;1.27;;;23.10;84.20;;;;;;4975765;28;20027;-71
2022/07/27 12:25:15;;;;;;;4.43;1.38;;;23.50;83.00;;;;;;4973766;28;20155;-67
2022/07/27 12:27:58;;;;;;;4.95;1.30;;;23.80;81.30;;;;;;4975298;28;20453;-68
2022/07/27 12:30:30;;;;;;;;;;;24.00;80.50;;;;;;4975701;28;20039;-68
2022/07/27 12:32:56;;;;;;;4.50;1.20;;;24.20;79.90;;;;;;4975608;28;19965;-69
2022/07/27 12:35:29;;;;;;;2.58;0.90;;;24.30;78.80;;;;;;4975412;28;20409;-67
2022/07/27 12:38:05;;;;;;;2.92;1.33;;;24.40;78.60;;;;;;4975260;28;20022;-68
2022/07/27 12:40:32;;;;;;;4.13;1.60;;;24.50;78.80;;;;;;4975629;28;20109;-67
2022/07/27 12:43:05;;;;;;;6.05;1.30;;;24.40;78.50;;;;;;4975463;28;20030;-67
2022/07/27 12:45:33;;;;;;;3.92;1.10;;;24.30;78.90;;;;;;4975270;28;20062;-68
2022/07/27 12:48:20;;;;;;;5.45;1.27;;;24.20;78.40;;;;;;4975236;28;20058;-67
2022/07/27 12:50:55;;;;;;;4.65;0.90;;;24.00;78.30;;;;;;4975319;28;20338;-68
2022/07/27 12:53:21;;;;;;;5.72;1.17;;;23.90;78.30;;;;;;4975209;28;20031;-70